Latest Weather Observations for Hamilton Island

IDQ60801

Issued at 3:32 pm EST Friday 29 July 2016 (issued every 30 minutes, with the page automatically refreshed every 10 minutes)

About weather observations | Map of weather stations | Latest weather observations for QLD | Other Formats
Station Details ID: 033106 Name: HAMILTON ISLAND AIRPORT Lat: -20.37 Lon: 148.95 Height: 58.66 m
Data from the previous 72 hours. | See also: Recent months at Hamilton Island
Date/Time
EST
Temp
°C
App
Temp
°C
Dew
Point
°C
Rel
Hum
%
Delta-T
°C
Wind Press
QNH
hPa
Press
MSL
hPa
Rain since
9am
mm
Dir  Spd
km/h
Gust
km/h
Spd
kts
Gust
kts
29/03:30pm 20.3 15.2 14.9 71 3.2 SSE 35 43 19 23 1018.1 - 0.0
29/03:00pm 20.3 14.9 14.9 71 3.2 SSE 37 44 20 24 1018.0 1017.9 0.0
29/02:30pm 20.5 15.6 15.3 72 3.1 SSE 35 43 19 23 1018.1 - 0.0
29/02:00pm 20.4 15.3 14.7 70 3.3 SSE 35 43 19 23 1018.4 - 0.0
29/01:30pm 20.6 15.3 15.2 71 3.2 SSE 37 44 20 24 1018.6 - 0.0
29/01:00pm 20.5 14.6 14.8 70 3.4 SSE 39 44 21 24 1019.1 - 0.0
29/12:30pm 20.3 13.8 14.0 67 3.6 SSE 41 50 22 27 1019.6 - 0.0
29/12:00pm 20.1 13.5 13.8 67 3.6 SSE 41 50 22 27 1020.1 1019.9 0.0
29/11:30am 20.1 13.3 14.2 69 3.4 SSE 43 52 23 28 1020.2 - 0.0
29/11:00am 20.3 13.2 13.5 65 3.9 SSE 43 52 23 28 1020.8 - 0.0
29/10:30am 19.8 13.3 12.8 64 4.0 SSE 39 46 21 25 1021.2 - 0.0
29/10:00am 19.8 13.4 13.3 66 3.7 SSE 39 50 21 27 1021.5 - 0.0
29/09:30am 19.4 11.9 12.7 65 3.8 SSE 44 54 24 29 1021.2 - 0.0
29/09:00am 19.4 12.6 13.1 67 3.6 SSE 41 50 22 27 1021.2 1021.0 0.0
29/08:30am 18.8 11.4 13.0 69 3.3 SSE 44 56 24 30 1021.1 - 0.0
29/08:00am 18.9 13.2 13.1 69 3.3 SSE 35 46 19 25 1020.8 - 0.0
29/07:30am 18.5 12.3 12.5 68 3.4 SSE 37 48 20 26 1020.6 - 0.0
29/07:00am 18.4 13.0 12.8 70 3.1 SSE 33 44 18 24 1020.4 - 0.0
29/06:30am 18.1 12.8 12.5 70 3.1 S 32 41 17 22 1020.1 - 0.0
29/06:00am 18.0 12.4 12.2 69 3.2 S 33 43 18 23 1019.9 1019.7 0.0
29/05:30am 18.3 12.1 12.5 69 3.2 SSE 37 46 20 25 1019.6 - 0.0
29/05:00am 18.2 12.2 12.2 68 3.3 SSE 35 43 19 23 1019.2 - 0.0
29/04:30am 18.2 12.1 11.7 66 3.6 SSE 35 44 19 24 1019.2 - 0.0
29/04:00am 18.3 12.1 12.5 69 3.2 SSE 37 44 20 24 1019.4 - 0.0
29/03:30am 18.1 11.6 11.7 66 3.5 SSE 37 46 20 25 1019.4 - 0.0
29/03:00am 18.2 11.6 11.3 64 3.8 SSE 37 46 20 25 1019.5 1019.3 0.0
29/02:30am 18.4 11.8 11.2 63 3.9 SSE 37 46 20 25 1019.7 - 0.0
29/02:00am 18.5 12.0 11.8 65 3.7 SSE 37 44 20 24 1019.8 - 0.0
29/01:30am 18.8 12.0 12.1 65 3.7 SE 39 46 21 25 1019.9 - 0.0
29/01:00am 18.9 12.1 11.9 64 3.9 SE 39 48 21 26 1020.4 - 0.0
29/12:30am 18.8 12.4 11.9 64 3.8 SE 37 44 20 24 1020.6 - 0.0
29/12:00am 18.9 11.6 11.7 63 4.0 SE 41 48 22 26 1020.7 1020.5 0.0
 
Date/Time
EST
Temp
°C
App
Temp
°C
Dew
Point
°C
Rel
Hum
%
Delta-T
°C
Wind Press
QNH
hPa
Press
MSL
hPa
Rain since
9am
mm
Dir  Spd
km/h
Gust
km/h
Spd
kts
Gust
kts
28/11:30pm 19.0 11.8 11.8 63 4.0 SE 41 48 22 26 1021.1 - 0.0
28/11:00pm 19.2 12.4 10.7 58 4.6 SE 37 43 20 23 1021.5 - 0.0
28/10:30pm 19.4 12.2 10.7 57 4.7 SE 39 46 21 25 1021.5 - 0.0
28/10:00pm 19.4 12.5 10.4 56 4.9 SSE 37 44 20 24 1021.7 - 0.0
28/09:30pm 19.3 12.5 10.8 58 4.6 SE 37 43 20 23 1021.7 - 0.0
28/09:00pm 19.3 12.4 10.3 56 4.8 SE 37 43 20 23 1021.6 1021.4 0.0
28/08:30pm 19.5 13.0 10.5 56 4.9 SE 35 43 19 23 1021.3 - 0.0
28/08:00pm 19.3 13.5 10.8 58 4.6 SE 32 39 17 21 1021.3 - 0.0
28/07:30pm 19.3 13.6 11.3 60 4.4 ESE 32 37 17 20 1021.0 - 0.0
28/07:00pm 19.1 13.4 11.2 60 4.3 ESE 32 39 17 21 1020.8 - 0.0
28/06:30pm 19.1 13.3 10.9 59 4.5 SE 32 39 17 21 1020.5 - 0.0
28/06:00pm 19.3 13.1 11.3 60 4.4 SE 35 41 19 22 1020.2 1020.0 0.0
28/05:30pm 19.3 13.0 11.1 59 4.5 ESE 35 43 19 23 1020.1 - 0.0
28/05:00pm 19.3 13.0 11.1 59 4.5 ESE 35 39 19 21 1020.0 - 0.0
28/04:30pm 19.3 11.9 11.3 60 4.4 SE 41 48 22 26 1019.7 - 0.0
28/04:00pm 19.5 11.9 12.5 64 3.9 SE 44 52 24 28 1019.8 - 0.0
28/03:30pm 19.6 12.0 12.4 63 4.0 SE 44 52 24 28 1019.6 - 0.0
28/03:00pm 19.8 11.9 11.6 59 4.5 SSE 44 50 24 27 1019.4 1019.2 0.0
28/02:30pm 20.0 12.0 12.5 62 4.2 SSE 46 54 25 29 1019.5 - 0.0
28/02:00pm 20.1 11.9 11.6 58 4.7 SE 46 54 25 29 1019.9 - 0.0
28/01:30pm 20.1 11.3 11.1 56 4.9 SSE 48 56 26 30 1020.0 - 0.0
28/01:00pm 20.5 12.3 11.7 57 4.9 SSE 46 56 25 30 1020.3 - 0.0
28/12:30pm 20.3 11.2 11.2 56 5.0 SSE 50 57 27 31 1020.7 - 0.0
28/12:00pm 20.3 11.6 12.5 61 4.4 SSE 50 59 27 32 1021.2 1021.0 0.0
28/11:30am 20.1 10.9 12.1 60 4.5 SSE 52 61 28 33 1021.4 - 0.0
28/11:00am 20.2 11.3 11.9 59 4.6 SSE 50 61 27 33 1021.7 - 0.0
28/10:30am 19.9 11.1 11.1 57 4.8 SSE 48 59 26 32 1021.9 - 0.0
28/10:00am 19.7 10.9 10.9 57 4.8 SSE 48 57 26 31 1022.2 - 0.0
28/09:30am 20.0 10.7 10.4 54 5.2 SSE 50 59 27 32 1022.4 - 0.0
28/09:00am 19.2 10.1 9.7 54 5.0 SSE 48 57 26 31 1022.3 1022.1 0.0
28/08:30am 19.5 11.4 10.8 57 4.7 SSE 44 52 24 28 1022.0 - 0.0
28/08:00am 19.6 11.7 11.6 60 4.4 SSE 44 54 24 29 1021.6 - 0.0
28/07:30am 19.7 11.7 12.5 63 4.0 SSE 46 56 25 30 1021.3 - 0.0
28/07:00am 19.3 11.0 11.3 60 4.4 SSE 46 54 25 29 1021.2 - 0.0
28/06:30am 19.5 11.7 11.8 61 4.3 SSE 44 52 24 28 1020.9 - 0.0
28/06:00am 19.5 11.7 11.0 58 4.6 SSE 43 52 23 28 1020.6 1020.4 0.0
28/05:30am 19.7 11.7 11.2 58 4.7 SSE 44 50 24 27 1020.3 - 0.0
28/05:00am 19.9 12.4 13.8 68 3.5 SSE 46 56 25 30 1020.1 - 0.0
28/04:30am 19.9 11.8 13.1 65 3.9 SSE 48 57 26 31 1019.9 - 0.0
28/04:00am 20.0 12.6 13.0 64 4.0 SE 44 50 24 27 1020.0 - 0.0
28/03:30am 20.1 13.7 14.2 69 3.4 SSE 41 48 22 26 1020.2 - 0.0
28/03:00am 20.2 13.8 13.2 64 4.0 SSE 39 48 21 26 1020.4 1020.2 0.0
28/02:30am 20.4 14.6 12.6 61 4.4 SSE 35 43 19 23 1020.3 - 0.0
28/02:00am 20.8 15.4 12.8 60 4.5 SSE 33 41 18 22 1020.3 - 0.0
28/01:30am 21.0 13.9 13.4 62 4.4 SSE 43 50 23 27 1020.4 - 0.0
28/01:00am 21.1 14.5 13.8 63 4.2 SSE 41 46 22 25 1020.5 - 0.0
28/12:30am 21.4 15.5 15.7 70 3.4 SSE 41 48 22 26 1020.6 - 0.0
28/12:00am 21.5 16.9 16.2 72 3.2 SE 35 43 19 23 1020.6 1020.4 0.0
 
Date/Time
EST
Temp
°C
App
Temp
°C
Dew
Point
°C
Rel
Hum
%
Delta-T
°C
Wind Press
QNH
hPa
Press
MSL
hPa
Rain since
9am
mm
Dir  Spd
km/h
Gust
km/h
Spd
kts
Gust
kts
27/11:30pm 21.9 16.1 15.0 65 4.1 SSE 39 44 21 24 1020.5 - 0.0
27/11:00pm 21.8 16.9 15.2 66 3.9 SE 35 43 19 23 1020.5 - 0.0
27/10:30pm 21.7 18.1 16.2 71 3.3 SE 30 32 16 17 1020.4 - 0.0
27/10:00pm 21.7 18.5 16.2 71 3.3 SE 28 33 15 18 1020.3 - 0.0
27/09:30pm 21.7 18.7 15.8 69 3.5 SE 26 30 14 16 1020.2 - 0.0
27/09:00pm 21.8 18.9 16.1 70 3.4 SE 26 30 14 16 1020.0 1019.8 0.0
27/08:30pm 21.6 19.2 15.4 68 3.7 SE 22 28 12 15 1020.0 - 0.0
27/08:00pm 21.7 19.7 15.5 68 3.7 SE 20 24 11 13 1019.9 - 0.0
27/07:30pm 21.7 18.7 15.8 69 3.5 SE 26 30 14 16 1019.5 - 0.0
27/07:00pm 21.6 19.3 15.7 69 3.5 SE 22 28 12 15 1018.9 - 0.0
27/06:30pm 21.4 18.7 17.6 79 2.3 SE 28 32 15 17 1018.4 - 0.0
27/06:00pm 21.4 19.1 17.6 79 2.3 ESE 26 30 14 16 1018.2 1018.1 0.0
27/05:30pm 21.4 20.2 18.4 83 1.9 ESE 22 28 12 15 1018.0 - 0.0
27/05:00pm 21.5 19.6 17.7 79 2.4 ESE 24 28 13 15 1017.5 - 0.0
27/04:30pm 21.7 19.0 17.5 77 2.6 ESE 28 32 15 17 1017.1 - 0.0
27/04:00pm 21.9 20.1 17.9 78 2.5 ESE 24 28 13 15 1017.0 - 0.0
27/03:30pm 21.8 19.5 17.6 77 2.6 ESE 26 30 14 16 1016.8 - 0.0
27/03:00pm 22.3 21.4 18.3 78 2.5 E 20 26 11 14 1016.7 1016.6 0.0
27/02:30pm 22.6 21.6 17.9 75 2.9 SE 20 26 11 14 1017.0 - 0.0
27/02:00pm 22.0 21.2 18.0 78 2.5 SSE 19 22 10 12 1016.9 - 0.0
27/01:30pm 22.3 22.1 18.5 79 2.4 SE 17 22 9 12 1017.1 - 0.0
27/01:00pm 22.3 21.6 18.7 80 2.3 SSE 20 24 11 13 1017.5 - 0.0
27/12:36pm 22.1 20.6 18.5 80 2.3 SSE 24 30 13 16 1017.8 - 0.0
27/12:30pm 22.1 20.6 18.5 80 2.3 SSE 24 30 13 16 1017.9 - 0.0
27/12:00pm 22.0 20.0 18.4 80 2.3 SSE 26 32 14 17 1018.0 1017.9 0.0
27/11:30am 21.8 19.3 18.0 79 2.4 SSE 28 33 15 18 1018.2 - 0.0
27/11:00am 21.6 19.6 18.4 82 2.0 SSE 26 33 14 18 1018.7 - 0.0
27/10:55am 21.3 20.1 18.5 84 1.8 SSE 22 32 12 17 1018.8 - 0.0
27/10:53am 20.8 19.4 18.0 84 1.7 SSE 22 32 12 17 1018.7 - 0.0
27/10:40am 21.3 20.5 17.9 81 2.1 SSE 19 26 10 14 1018.8 - 0.0
27/10:30am 21.8 20.2 18.4 81 2.1 SSE 24 30 13 16 1018.9 - 0.0
27/10:19am 21.6 20.0 18.4 82 2.0 SSE 24 32 13 17 1019.0 - 0.0
27/10:00am 21.8 19.9 18.6 82 2.0 SSE 26 32 14 17 1019.0 - 0.0
27/09:30am 21.4 19.3 18.0 81 2.1 SSE 26 30 14 16 1019.5 - 0.0
27/09:00am 20.9 19.3 18.3 85 1.6 SSE 24 28 13 15 1019.5 1019.3 0.0
27/08:44am 20.7 19.0 18.1 85 1.6 SSE 24 30 13 16 1019.4 - 0.0
27/08:43am 20.7 18.9 17.9 84 1.7 SSE 24 30 13 16 1019.2 - 0.0
27/08:30am 21.5 20.0 18.5 83 1.9 SSE 24 28 13 15 1019.2 - 0.0
27/08:00am 20.5 18.9 18.4 88 1.3 SSE 24 32 13 17 1019.4 - 0.0
27/07:30am 20.2 18.9 18.1 88 1.3 SSE 22 28 12 15 1019.0 - 0.0
27/07:00am 20.2 19.3 18.3 89 1.2 SSE 20 26 11 14 1018.8 - 0.0
27/06:30am 20.3 19.2 18.6 90 1.1 S 22 28 12 15 1018.5 - 0.0
27/06:00am 20.4 18.9 18.5 89 1.2 SSE 24 32 13 17 1018.4 1018.3 0.0
27/05:30am 20.3 18.3 18.4 89 1.2 SSE 26 30 14 16 1018.0 - 0.0
27/05:00am 20.3 18.0 18.4 89 1.2 SSE 28 33 15 18 1017.7 - 0.0
27/04:30am 20.5 18.6 18.6 89 1.2 SSE 26 33 14 18 1017.7 - 0.0
27/04:00am 20.5 17.9 18.6 89 1.2 SSE 30 35 16 19 1017.7 - 0.0
27/03:30am 20.5 18.7 18.8 90 1.1 SSE 26 32 14 17 1017.6 - 0.0
27/03:00am 20.6 18.6 19.1 91 0.9 SSE 28 32 15 17 1017.7 1017.6 0.0
27/02:30am 20.6 18.9 18.9 90 1.1 SSE 26 32 14 17 1017.8 - 0.0
27/02:15am 20.7 19.5 19.2 91 0.9 SSE 24 33 13 18 1018.0 - 0.0
27/02:13am 20.7 19.5 19.2 91 0.9 SSE 24 33 13 18 1017.9 - 0.0
27/02:00am 20.6 18.6 19.1 91 0.9 S 28 35 15 19 1017.9 - 0.0
27/01:30am 20.9 19.4 19.4 91 1.0 S 26 32 14 17 1017.9 - 0.0
27/01:27am 20.9 19.3 19.2 90 1.1 S 26 32 14 17 1017.9 - 0.0
27/01:00am 21.2 20.2 18.8 86 1.5 SE 22 26 12 14 1017.9 - 0.0
27/12:30am 21.1 20.1 18.9 87 1.4 SE 22 26 12 14 1018.0 - 0.0
27/12:00am 21.2 20.5 18.6 85 1.6 SE 20 22 11 12 1018.1 1018.0 0.0
 
Date/Time
EST
Temp
°C
App
Temp
°C
Dew
Point
°C
Rel
Hum
%
Delta-T
°C
Wind Press
QNH
hPa
Press
MSL
hPa
Rain since
9am
mm
Dir  Spd
km/h
Gust
km/h
Spd
kts
Gust
kts
26/11:51pm 21.3 20.6 18.7 85 1.6 SE 20 24 11 13 1018.2 - 0.0
26/11:30pm 21.2 20.8 18.8 86 1.5 SE 19 22 10 12 1018.2 - 0.0
26/11:19pm 21.2 20.8 18.8 86 1.5 SE 19 20 10 11 1018.2 - 0.0
26/11:00pm 21.2 20.6 18.9 87 1.5 SE 20 24 11 13 1017.9 - 0.0
26/10:38pm 21.2 20.2 18.9 87 1.5 SE 22 26 12 14 1018.0 - 0.0
26/10:30pm 21.2 20.6 18.9 87 1.5 SE 20 24 11 13 1018.0 - 0.0
26/10:26pm 21.2 20.7 19.1 88 1.3 SE 20 24 11 13 1018.0 - 0.0
26/10:03pm 21.2 20.6 18.9 87 1.5 SE 20 24 11 13 1017.9 - 0.0
26/10:00pm 21.2 20.7 19.1 88 1.3 SE 20 24 11 13 1017.9 - 0.0
26/09:30pm 21.1 20.7 19.0 88 1.3 SE 19 22 10 12 1017.8 - 0.0
26/09:00pm 21.2 20.9 19.1 88 1.3 SE 19 22 10 12 1017.8 1017.7 0.0
26/08:30pm 21.1 20.7 19.0 88 1.3 SE 19 20 10 11 1017.7 - 0.0
26/08:00pm 21.2 20.4 19.3 89 1.2 SE 22 26 12 14 1017.5 - 0.0
26/07:30pm 21.2 20.3 19.1 88 1.3 SE 22 28 12 15 1017.3 - 0.0
26/07:00pm 21.2 20.2 18.8 86 1.5 SE 22 26 12 14 1016.8 - 0.0
26/06:30pm 21.1 20.5 18.5 85 1.6 SE 19 20 10 11 1016.5 - 0.0
26/06:00pm 21.3 20.6 18.3 83 1.9 ESE 19 20 10 11 1016.3 1016.2 0.0
26/05:30pm 21.4 20.6 18.0 81 2.1 SE 19 22 10 12 1016.1 - 0.0
26/05:00pm 21.6 20.3 18.2 81 2.1 SE 22 26 12 14 1015.8 - 0.0
26/04:30pm 21.6 20.0 18.4 82 2.0 SSE 24 26 13 14 1015.8 - 0.0
26/04:00pm 21.7 20.4 18.1 80 2.2 SSE 22 26 12 14 1015.6 - 0.0

Other Formats:

Comma delimited format used in spreadsheet applications
http://www.bom.gov.au/fwo/IDQ60801/IDQ60801.94368.axf

JavaScript Object Notation format (JSON) in row-major order
http://www.bom.gov.au/fwo/IDQ60801/IDQ60801.94368.json